Time;durP1;ratioP1;P1;durP2;ratioP2;P2;SDS_P1;SDS_P2;PMS_P1;PMS_P2;Temp;Humidity;BMP_temperature;BMP_pressure;BME280_temperature;BME280_humidity;BME280_pressure;Samples;Min_cycle;Max_cycle;Signal;HPM_P1;HPM_P2
2023/03/09 00:02:24;;;;;;;;;;;23.70;48.50;;;;;;6301159;22;20208;-76
2023/03/09 00:04:51;;;;;;;;;;;23.60;48.50;;;;;;6303972;22;20294;-76
2023/03/09 00:07:18;;;;;;;;;;;23.70;49.80;;;;;;6304188;22;19907;-76
2023/03/09 00:09:44;;;;;;;;;;;23.70;47.80;;;;;;6303464;22;19906;-77
2023/03/09 00:12:11;;;;;;;;;;;23.70;49.20;;;;;;6303802;22;19911;-77
2023/03/09 00:14:38;;;;;;;;;;;23.80;48.20;;;;;;6276349;22;20285;-76
2023/03/09 00:17:05;;;;;;;;;;;23.80;46.60;;;;;;6303674;22;19903;-75
2023/03/09 00:19:31;;;;;;;;;;;23.80;45.90;;;;;;6303103;22;19907;-76
2023/03/09 00:21:58;;;;;;;;;;;23.90;46.00;;;;;;6304224;22;20241;-76
2023/03/09 00:24:29;;;;;;;;;;;23.90;46.60;;;;;;6304107;22;20318;-75
2023/03/09 00:26:56;;;;;;;;;;;23.90;45.50;;;;;;6304311;22;20326;-74
2023/03/09 00:29:24;;;;;;;;;;;24.00;45.70;;;;;;6303416;22;19903;-77
2023/03/09 00:31:51;;;;;;;;;;;24.00;45.80;;;;;;6251179;22;19911;-76
2023/03/09 00:34:18;;;;;;;;;;;24.00;46.20;;;;;;6302467;22;20238;-77
2023/03/09 02:00:14;;;;;;;;;;;24.80;44.00;;;;;;6304795;22;20341;-75
2023/03/09 02:02:41;;;;;;;;;;;24.80;44.00;;;;;;6304546;22;20354;-75
2023/03/09 02:05:10;;;;;;;;;;;24.80;43.50;;;;;;6303588;22;19911;-75
2023/03/09 02:07:37;;;;;;;;;;;24.80;43.40;;;;;;6306154;22;19903;-76
2023/03/09 02:10:07;;;;;;;;;;;24.80;42.60;;;;;;6279176;22;20225;-76
2023/03/09 02:12:33;;;;;;;;;;;24.80;41.50;;;;;;6306085;22;19903;-76
2023/03/09 02:15:00;;;;;;;;;;;24.80;41.80;;;;;;6253180;22;19935;-76
2023/03/09 02:17:27;;;;;;;;;;;24.80;42.40;;;;;;6277721;22;19903;-76
2023/03/09 02:19:54;;;;;;;;;;;24.90;42.10;;;;;;6279071;22;19903;-76
2023/03/09 02:22:20;;;;;;;;;;;24.90;41.40;;;;;;6306196;22;20329;-76
2023/03/09 02:25:12;;;;;;;;;;;25.00;41.30;;;;;;6304711;22;20301;-76
2023/03/09 02:27:38;;;;;;;;;;;25.00;41.60;;;;;;6279268;22;19910;-76
2023/03/09 02:30:06;;;;;;;;;;;25.00;41.40;;;;;;6306629;22;19910;-76
2023/03/09 02:32:32;;;;;;;;;;;25.00;41.50;;;;;;6306231;22;19934;-76
2023/03/09 02:34:59;;;;;;;;;;;25.00;40.90;;;;;;6307093;22;20310;-76
2023/03/09 02:37:27;;;;;;;;;;;25.00;40.90;;;;;;6308123;22;19910;-76
2023/03/09 02:39:56;;;;;;;;;;;24.90;39.30;;;;;;6278328;22;19945;-77
2023/03/09 02:42:22;;;;;;;;;;;24.90;40.50;;;;;;6279610;22;19911;-77
2023/03/09 02:44:49;;;;;;;;;;;25.00;41.40;;;;;;6305939;22;19964;-77
2023/03/09 02:47:20;;;;;;;;;;;25.00;40.70;;;;;;6306587;22;20307;-77
2023/03/09 02:49:46;;;;;;;;;;;25.10;41.50;;;;;;6279749;22;20307;-76
2023/03/09 02:52:13;;;;;;;;;;;25.10;40.10;;;;;;6307152;22;19903;-77
2023/03/09 02:54:40;;;;;;;;;;;25.10;40.40;;;;;;6307434;22;19907;-77
2023/03/09 02:57:07;;;;;;;;;;;25.20;40.10;;;;;;6281053;22;19907;-77
2023/03/09 08:18:53;;;;;;;;;;;23.00;51.90;;;;;;6300681;22;20724;-72
2023/03/09 08:21:20;;;;;;;;;;;22.90;51.20;;;;;;6301985;22;20337;-72
2023/03/09 08:23:46;;;;;;;;;;;23.00;51.40;;;;;;6302178;22;19907;-72
2023/03/09 08:26:14;;;;;;;;;;;23.00;51.80;;;;;;6302455;22;19914;-71
2023/03/09 08:28:41;;;;;;;;;;;22.90;51.80;;;;;;6301777;22;20334;-71
2023/03/09 08:31:10;;;;;;;;;;;22.90;51.60;;;;;;6303363;22;19907;-72
2023/03/09 08:33:37;;;;;;;;;;;22.90;51.00;;;;;;6274982;22;19917;-72
2023/03/09 08:36:15;;;;;;;;;;;22.90;50.90;;;;;;6302667;22;20342;-71
2023/03/09 08:38:42;;;;;;;;;;;22.90;52.00;;;;;;6302510;22;19903;-71
2023/03/09 08:41:09;;;;;;;;;;;22.90;51.80;;;;;;6302834;22;20292;-71
2023/03/09 08:43:35;;;;;;;;;;;22.90;51.40;;;;;;6303435;22;19907;-71
2023/03/09 08:46:02;;;;;;;;;;;22.90;50.60;;;;;;6301844;22;19914;-71
2023/03/09 08:48:29;;;;;;;;;;;22.80;50.90;;;;;;6302123;22;19968;-71
2023/03/09 08:50:56;;;;;;;;;;;22.80;51.30;;;;;;6301963;22;19921;-71
2023/03/09 08:53:23;;;;;;;;;;;22.80;51.30;;;;;;6300204;22;19907;-71
2023/03/09 08:55:50;;;;;;;;;;;22.80;51.50;;;;;;6301409;22;19929;-71
2023/03/09 08:58:17;;;;;;;;;;;22.80;50.80;;;;;;6301923;22;19906;-71
2023/03/09 09:00:44;;;;;;;;;;;22.90;51.00;;;;;;6299514;22;19934;-71
2023/03/09 09:03:11;;;;;;;;;;;22.90;51.80;;;;;;6302144;22;20112;-72
2023/03/09 09:05:38;;;;;;;;;;;22.90;51.70;;;;;;6301935;22;19976;-71
2023/03/09 09:08:04;;;;;;;;;;;22.80;51.70;;;;;;6301496;22;19914;-72
2023/03/09 09:10:31;;;;;;;;;;;22.80;51.80;;;;;;6302653;22;19907;-72
2023/03/09 09:12:58;;;;;;;;;;;22.80;52.90;;;;;;6301562;22;19902;-72
2023/03/09 09:15:25;;;;;;;;;;;22.80;53.00;;;;;;6299276;22;19937;-71
2023/03/09 09:17:53;;;;;;;;;;;22.80;52.50;;;;;;6299215;22;19919;-72
2023/03/09 09:20:20;;;;;;;;;;;22.80;52.50;;;;;;6298390;22;19911;-71
2023/03/09 09:22:47;;;;;;;;;;;22.80;53.10;;;;;;6297721;22;20383;-70
2023/03/09 09:25:14;;;;;;;;;;;22.70;52.60;;;;;;6299043;22;20318;-73
2023/03/09 09:27:41;;;;;;;;;;;22.80;52.90;;;;;;6298641;22;19914;-77
2023/03/09 09:30:09;;;;;;;;;;;22.80;52.30;;;;;;6301564;22;20317;-72
2023/03/09 09:32:36;;;;;;;;;;;22.80;52.40;;;;;;6300290;22;19907;-71
2023/03/09 09:35:04;;;;;;;;;;;22.80;52.80;;;;;;6300222;22;19906;-72
2023/03/09 09:37:31;;;;;;;;;;;22.70;53.30;;;;;;6301393;22;19965;-71
2023/03/09 09:39:58;;;;;;;;;;;22.70;54.00;;;;;;6300724;22;19906;-72
2023/03/09 09:42:36;;;;;;;;;;;22.70;53.70;;;;;;6297736;22;20198;-71
2023/03/09 09:45:04;;;;;;;;;;;22.70;52.90;;;;;;6300038;22;19919;-73
2023/03/09 09:47:31;;;;;;;;;;;22.70;53.40;;;;;;6273336;22;19918;-72
2023/03/09 09:49:58;;;;;;;;;;;22.70;53.50;;;;;;6301305;22;20299;-73
2023/03/09 09:52:25;;;;;;;;;;;22.70;53.70;;;;;;6272811;22;19914;-73
2023/03/09 09:54:54;;;;;;;;;;;22.70;53.90;;;;;;6301492;22;20344;-75
2023/03/09 09:57:23;;;;;;;;;;;22.70;53.90;;;;;;6273926;22;20261;-73
2023/03/09 10:00:01;;;;;;;;;;;22.70;54.30;;;;;;6271709;22;19907;-74
2023/03/09 10:02:40;;;;;;;;;;;22.60;54.70;;;;;;6273055;22;19997;-71
2023/03/09 10:05:16;;;;;;;;;;;22.60;55.80;;;;;;6301437;22;19951;-74
2023/03/09 10:07:43;;;;;;;;;;;22.50;55.80;;;;;;6300614;22;20239;-72
2023/03/09 10:10:35;;;;;;;;;;;22.60;55.60;;;;;;6301152;22;20209;-74
2023/03/09 10:13:02;;;;;;;;;;;22.60;55.60;;;;;;6294020;22;19944;-74
2023/03/09 10:15:29;;;;;;;;;;;22.50;56.40;;;;;;6274017;22;20303;-73
2023/03/09 10:18:22;;;;;;;;;;;22.50;56.60;;;;;;6156306;22;3310633;-73
2023/03/09 10:20:52;;;;;;;;;;;22.50;56.40;;;;;;6284486;22;20258;-74
2023/03/09 10:23:31;;;;;;;;;;;22.40;56.70;;;;;;6302055;22;19907;-72
2023/03/09 10:26:02;;;;;;;;;;;22.50;57.30;;;;;;6301528;22;19921;-75
2023/03/09 10:28:33;;;;;;;;;;;22.50;57.70;;;;;;6273687;22;20318;-73
2023/03/09 10:31:09;;;;;;;;;;;22.50;58.10;;;;;;6274821;22;19913;-71
2023/03/09 10:33:40;;;;;;;;;;;22.40;58.10;;;;;;6301134;22;19907;-72
2023/03/09 10:36:13;;;;;;;;;;;22.40;57.90;;;;;;6274497;22;20303;-73
2023/03/09 10:38:40;;;;;;;;;;;22.40;58.10;;;;;;6301254;22;19914;-73
2023/03/09 10:41:17;;;;;;;;;;;22.40;58.50;;;;;;6300230;22;19906;-72
2023/03/09 10:43:44;;;;;;;;;;;22.40;58.30;;;;;;6301382;22;20304;-73
2023/03/09 10:46:17;;;;;;;;;;;22.40;58.30;;;;;;6301061;22;19922;-73
2023/03/09 10:48:44;;;;;;;;;;;22.40;59.10;;;;;;6301955;22;20367;-74
2023/03/09 10:51:19;;;;;;;;;;;22.40;59.00;;;;;;6301351;22;19914;-78
2023/03/09 10:53:49;;;;;;;;;;;22.40;58.50;;;;;;6302503;22;20003;-74
2023/03/09 10:56:29;;;;;;;;;;;22.40;58.50;;;;;;6276949;22;19906;-79
2023/03/09 10:59:07;;;;;;;;;;;22.30;58.70;;;;;;6277188;22;19907;-77
2023/03/09 11:01:37;;;;;;;;;;;22.20;59.10;;;;;;6302001;22;20009;-76
2023/03/09 11:04:24;;;;;;;;;;;22.10;59.40;;;;;;6250284;22;19918;-76
2023/03/09 11:06:55;;;;;;;;;;;22.10;59.80;;;;;;6278316;22;19911;-77
2023/03/09 11:09:35;;;;;;;;;;;22.00;59.90;;;;;;6277192;22;19961;-77
2023/03/09 11:12:16;;;;;;;;;;;22.00;60.20;;;;;;6304630;22;19907;-77
2023/03/09 11:14:44;;;;;;;;;;;21.90;60.30;;;;;;6277522;22;19946;-75
2023/03/09 11:17:34;;;;;;;;;;;21.90;60.60;;;;;;6304129;22;19915;-77
2023/03/09 11:20:20;;;;;;;;;;;21.90;60.80;;;;;;6284701;22;19990;-76
2023/03/09 11:22:48;;;;;;;;;;;21.90;60.90;;;;;;6251309;22;19907;-76
2023/03/09 11:25:17;;;;;;;;;;;21.80;61.00;;;;;;6276747;22;20341;-74
2023/03/09 11:27:46;;;;;;;;;;;21.90;61.10;;;;;;6304087;22;19950;-75
2023/03/09 11:30:13;;;;;;;;;;;21.80;61.30;;;;;;6276768;22;19903;-76
2023/03/09 11:32:40;;;;;;;;;;;21.80;61.50;;;;;;6304170;22;19910;-74
2023/03/09 11:35:08;;;;;;;;;;;21.80;61.70;;;;;;6276657;22;20245;-75
2023/03/09 11:37:41;;;;;;;;;;;21.80;61.90;;;;;;6303479;22;19911;-74
2023/03/09 11:40:18;;;;;;;;;;;21.80;62.00;;;;;;6303866;22;19915;-76
2023/03/09 11:42:53;;;;;;;;;;;21.70;62.10;;;;;;6277267;22;19907;-75
2023/03/09 11:45:21;;;;;;;;;;;21.70;62.40;;;;;;6304014;22;19926;-77
2023/03/09 11:47:49;;;;;;;;;;;21.70;62.60;;;;;;6251138;22;19933;-78
2023/03/09 11:50:22;;;;;;;;;;;21.70;62.70;;;;;;6304850;22;20322;-77
2023/03/09 11:52:55;;;;;;;;;;;21.70;63.00;;;;;;6275395;22;19957;-76
2023/03/09 11:55:28;;;;;;;;;;;21.70;63.20;;;;;;6304237;22;19914;-75
2023/03/09 11:57:55;;;;;;;;;;;21.70;63.50;;;;;;6249673;22;20345;-73
2023/03/09 12:00:21;;;;;;;;;;;21.70;63.40;;;;;;6273858;22;20440;-70
2023/03/09 12:02:49;;;;;;;;;;;21.70;63.50;;;;;;6276574;22;19910;-74
2023/03/09 12:05:15;;;;;;;;;;;21.60;63.60;;;;;;6303393;22;19918;-74
2023/03/09 12:07:56;;;;;;;;;;;21.60;63.70;;;;;;6277156;22;19918;-74
2023/03/09 12:10:25;;;;;;;;;;;21.60;63.90;;;;;;6276717;22;19907;-74
2023/03/09 12:13:15;;;;;;;;;;;21.50;64.10;;;;;;6304206;22;19903;-73
2023/03/09 12:16:02;;;;;;;;;;;21.50;64.10;;;;;;6283716;22;20334;-72
2023/03/09 12:18:32;;;;;;;;;;;21.50;64.40;;;;;;6276323;22;20021;-72
2023/03/09 12:20:59;;;;;;;;;;;21.50;64.60;;;;;;6304638;22;19907;-72
2023/03/09 12:23:35;;;;;;;;;;;21.50;64.60;;;;;;6305261;22;19907;-73
2023/03/09 12:26:20;;;;;;;;;;;21.50;64.80;;;;;;6304723;22;20368;-72
2023/03/09 12:28:59;;;;;;;;;;;21.50;65.00;;;;;;6306619;22;19910;-73
2023/03/09 12:31:33;;;;;;;;;;;21.50;65.20;;;;;;6305949;22;19903;-72
2023/03/09 12:34:00;;;;;;;;;;;21.50;65.30;;;;;;6306372;22;20203;-72
2023/03/09 12:36:30;;;;;;;;;;;21.50;65.70;;;;;;6305841;22;19965;-73
2023/03/09 12:39:15;;;;;;;;;;;21.40;66.40;;;;;;6279506;22;19931;-72
2023/03/09 12:42:01;;;;;;;;;;;21.40;66.60;;;;;;6306803;22;19907;-72
2023/03/09 12:44:43;;;;;;;;;;;21.40;66.70;;;;;;6306209;22;19915;-72
2023/03/09 12:47:23;;;;;;;;;;;21.30;66.70;;;;;;6305503;22;20249;-72
2023/03/09 12:49:53;;;;;;;;;;;21.30;66.00;;;;;;6306434;22;19907;-73
2023/03/09 12:52:23;;;;;;;;;;;21.30;65.80;;;;;;6278814;22;19937;-73
2023/03/09 12:54:56;;;;;;;;;;;21.30;65.70;;;;;;6306504;22;19910;-73
2023/03/09 12:57:23;;;;;;;;;;;21.30;65.70;;;;;;6278979;22;19903;-73
2023/03/09 12:59:50;;;;;;;;;;;21.30;65.70;;;;;;6279116;22;19934;-72
2023/03/09 13:02:27;;;;;;;;;;;21.30;65.90;;;;;;6278292;22;19907;-73
2023/03/09 13:05:24;;;;;;;;;;;21.30;66.10;;;;;;6305430;22;19911;-73
2023/03/09 13:07:54;;;;;;;;;;;21.30;66.40;;;;;;6280152;22;19907;-73
2023/03/09 13:10:41;;;;;;;;;;;21.20;66.50;;;;;;6306452;22;19909;-72
2023/03/09 13:13:26;;;;;;;;;;;21.20;66.70;;;;;;6305078;22;19903;-73
2023/03/09 13:16:12;;;;;;;;;;;21.20;66.80;;;;;;6304558;22;19907;-72
2023/03/09 13:18:39;;;;;;;;;;;21.10;67.10;;;;;;6303852;22;20250;-73
2023/03/09 13:21:24;;;;;;;;;;;21.10;67.20;;;;;;6278823;22;19946;-73
2023/03/09 13:23:51;;;;;;;;;;;21.10;67.40;;;;;;6305974;22;20337;-73
2023/03/09 13:26:17;;;;;;;;;;;21.00;67.70;;;;;;6306123;22;19915;-73
2023/03/09 13:28:46;;;;;;;;;;;21.00;67.70;;;;;;6278938;22;20318;-73
2023/03/09 13:31:26;;;;;;;;;;;20.90;67.80;;;;;;6305958;22;19903;-72
2023/03/09 13:33:52;;;;;;;;;;;20.80;67.80;;;;;;6278501;22;19925;-73
2023/03/09 13:36:23;;;;;;;;;;;20.80;67.80;;;;;;6305430;22;19903;-73
2023/03/09 13:38:52;;;;;;;;;;;20.80;68.00;;;;;;6278552;22;20116;-73
2023/03/09 13:41:20;;;;;;;;;;;20.80;68.50;;;;;;6279026;22;20283;-73
2023/03/09 13:43:50;;;;;;;;;;;20.80;68.50;;;;;;6305989;22;20301;-73
2023/03/09 13:46:17;;;;;;;;;;;20.70;68.50;;;;;;6305566;22;19953;-73
2023/03/09 13:48:45;;;;;;;;;;;20.70;68.60;;;;;;6304898;22;19903;-73
2023/03/09 13:51:41;;;;;;;;;;;20.70;68.70;;;;;;6277671;22;20330;-73
2023/03/09 13:54:28;;;;;;;;;;;20.60;68.60;;;;;;6273140;22;19957;-73
2023/03/09 13:56:58;;;;;;;;;;;20.60;68.50;;;;;;6305683;22;19907;-73
2023/03/09 13:59:26;;;;;;;;;;;20.60;68.60;;;;;;6276153;22;19993;-72
2023/03/09 14:01:53;;;;;;;;;;;20.60;68.70;;;;;;6305558;22;19910;-73
2023/03/09 14:04:19;;;;;;;;;;;20.60;68.80;;;;;;6277944;22;19907;-73
2023/03/09 14:06:46;;;;;;;;;;;20.60;68.80;;;;;;6301534;22;20234;-72
2023/03/09 14:09:20;;;;;;;;;;;20.50;68.80;;;;;;6303409;22;19910;-73
2023/03/09 14:11:47;;;;;;;;;;;20.50;69.10;;;;;;6277356;22;19909;-72
2023/03/09 14:14:17;;;;;;;;;;;20.50;69.50;;;;;;6278604;22;19910;-73
2023/03/09 14:16:44;;;;;;;;;;;20.50;69.80;;;;;;6278469;22;19960;-73
2023/03/09 14:19:37;;;;;;;;;;;20.50;70.10;;;;;;6278051;22;19903;-73
2023/03/09 14:22:05;;;;;;;;;;;20.50;70.30;;;;;;6298793;22;19914;-73
2023/03/09 14:24:33;;;;;;;;;;;20.50;70.50;;;;;;6278046;22;19952;-73
2023/03/09 14:27:18;;;;;;;;;;;20.50;70.70;;;;;;6304379;22;19918;-73
2023/03/09 14:29:44;;;;;;;;;;;20.40;72.10;;;;;;6305127;22;19906;-73
2023/03/09 14:32:30;;;;;;;;;;;20.40;73.00;;;;;;6280296;22;19953;-72
2023/03/09 14:34:57;;;;;;;;;;;20.40;73.50;;;;;;6307074;22;19903;-73
2023/03/09 14:37:28;;;;;;;;;;;20.40;73.70;;;;;;6307986;22;19977;-73
2023/03/09 14:39:55;;;;;;;;;;;20.30;74.10;;;;;;6307054;22;19903;-73
2023/03/09 14:42:26;;;;;;;;;;;20.30;74.00;;;;;;6279939;22;19899;-73
2023/03/09 14:45:00;;;;;;;;;;;20.30;74.10;;;;;;6307135;22;20368;-73
2023/03/09 14:47:27;;;;;;;;;;;20.30;74.10;;;;;;6307205;22;20078;-73
2023/03/09 14:49:54;;;;;;;;;;;20.20;74.10;;;;;;6307282;22;20233;-73
2023/03/09 14:52:21;;;;;;;;;;;20.30;74.10;;;;;;6280035;22;19907;-73
2023/03/09 14:54:48;;;;;;;;;;;20.30;73.90;;;;;;6306694;22;19909;-73
2023/03/09 14:57:15;;;;;;;;;;;20.20;74.20;;;;;;6279794;22;19903;-73
2023/03/09 14:59:42;;;;;;;;;;;20.10;74.20;;;;;;6278466;22;20230;-73
2023/03/09 15:02:09;;;;;;;;;;;20.10;74.20;;;;;;6307679;22;20313;-72
2023/03/09 15:04:36;;;;;;;;;;;20.20;74.00;;;;;;6305069;22;19910;-73
2023/03/09 15:07:03;;;;;;;;;;;20.10;73.90;;;;;;6306221;22;20360;-72
2023/03/09 15:09:30;;;;;;;;;;;20.10;73.70;;;;;;6307697;22;19917;-73
2023/03/09 15:11:58;;;;;;;;;;;20.10;73.50;;;;;;6305975;22;19907;-73
2023/03/09 15:14:28;;;;;;;;;;;20.00;73.30;;;;;;6278555;22;19909;-72
2023/03/09 15:16:55;;;;;;;;;;;20.00;73.30;;;;;;6306495;22;19911;-73
2023/03/09 15:19:21;;;;;;;;;;;20.10;73.30;;;;;;6307095;22;19909;-73
2023/03/09 15:21:48;;;;;;;;;;;20.00;73.30;;;;;;6307136;22;19914;-72
2023/03/09 15:24:15;;;;;;;;;;;20.00;73.30;;;;;;6305992;22;20003;-72
2023/03/09 15:26:42;;;;;;;;;;;20.00;73.20;;;;;;6307493;22;20346;-72
2023/03/09 15:29:08;;;;;;;;;;;20.00;73.40;;;;;;6307009;22;19983;-72
2023/03/09 15:31:35;;;;;;;;;;;20.00;73.40;;;;;;6307344;22;19909;-72
2023/03/09 15:34:02;;;;;;;;;;;20.00;73.60;;;;;;6307564;22;19903;-73
2023/03/09 15:36:29;;;;;;;;;;;19.90;73.80;;;;;;6308131;22;19914;-73
2023/03/09 15:38:55;;;;;;;;;;;19.90;74.20;;;;;;6307667;22;19903;-72
2023/03/09 15:41:22;;;;;;;;;;;19.90;74.30;;;;;;6307079;22;20293;-72
2023/03/09 15:43:49;;;;;;;;;;;19.90;74.10;;;;;;6306830;22;19903;-73
2023/03/09 15:46:15;;;;;;;;;;;19.90;74.10;;;;;;6307813;22;19969;-72
2023/03/09 15:48:42;;;;;;;;;;;19.80;74.10;;;;;;6307709;22;19908;-72
2023/03/09 15:51:09;;;;;;;;;;;19.90;74.60;;;;;;6306752;22;19910;-73
2023/03/09 15:53:35;;;;;;;;;;;19.90;74.20;;;;;;6307869;22;19906;-73
2023/03/09 15:56:03;;;;;;;;;;;19.80;73.90;;;;;;6307432;22;20453;-72
2023/03/09 15:58:30;;;;;;;;;;;19.70;74.00;;;;;;6307178;22;19907;-73
2023/03/09 16:00:58;;;;;;;;;;;19.80;74.30;;;;;;6307586;22;19903;-73
2023/03/09 16:03:25;;;;;;;;;;;19.70;74.10;;;;;;6307752;22;19903;-73
2023/03/09 16:05:52;;;;;;;;;;;19.70;74.30;;;;;;6307109;22;19911;-73
2023/03/09 16:08:19;;;;;;;;;;;19.70;74.10;;;;;;6307127;22;19925;-72
2023/03/09 16:10:46;;;;;;;;;;;19.60;74.30;;;;;;6307249;22;19903;-72
2023/03/09 16:13:15;;;;;;;;;;;19.50;74.30;;;;;;6307183;22;20278;-72
2023/03/09 16:15:42;;;;;;;;;;;19.40;74.40;;;;;;6307091;22;20216;-72
2023/03/09 16:18:09;;;;;;;;;;;19.40;74.70;;;;;;6306701;22;19988;-72
2023/03/09 16:20:36;;;;;;;;;;;19.50;74.60;;;;;;6307165;22;19986;-73
2023/03/09 16:23:02;;;;;;;;;;;19.50;74.80;;;;;;6307205;22;20980;-72
2023/03/09 16:25:29;;;;;;;;;;;19.50;74.60;;;;;;6307312;22;20002;-72
2023/03/09 16:27:56;;;;;;;;;;;19.50;74.60;;;;;;6307469;22;20381;-72
2023/03/09 16:30:23;;;;;;;;;;;19.40;74.70;;;;;;6306166;22;19930;-73
2023/03/09 16:32:50;;;;;;;;;;;19.40;74.60;;;;;;6307192;22;20315;-72
2023/03/09 16:35:17;;;;;;;;;;;19.40;74.60;;;;;;6306811;22;20336;-72
2023/03/09 16:37:43;;;;;;;;;;;19.50;74.90;;;;;;6307174;22;20334;-72
2023/03/09 16:40:10;;;;;;;;;;;19.40;74.60;;;;;;6307127;22;19907;-73
2023/03/09 16:42:37;;;;;;;;;;;19.40;74.60;;;;;;6306912;22;20234;-73
2023/03/09 16:45:04;;;;;;;;;;;19.40;74.90;;;;;;6306713;22;19956;-73
2023/03/09 16:47:30;;;;;;;;;;;19.30;74.60;;;;;;6307500;22;19946;-72
2023/03/09 16:49:58;;;;;;;;;;;19.40;75.20;;;;;;6306951;22;19990;-73
2023/03/09 16:52:25;;;;;;;;;;;19.30;74.80;;;;;;6306841;22;19909;-73
2023/03/09 16:54:56;;;;;;;;;;;19.30;75.00;;;;;;6306198;22;19903;-73
2023/03/09 16:57:22;;;;;;;;;;;19.30;75.20;;;;;;6279847;22;19903;-73
2023/03/09 16:59:58;;;;;;;;;;;19.20;75.30;;;;;;6306429;22;19910;-73
2023/03/09 17:02:25;;;;;;;;;;;19.20;75.60;;;;;;6279952;22;19903;-72
2023/03/09 17:04:52;;;;;;;;;;;19.20;75.70;;;;;;6279416;22;20337;-73
2023/03/09 17:07:19;;;;;;;;;;;19.10;75.70;;;;;;6306129;22;19910;-73
2023/03/09 17:09:46;;;;;;;;;;;19.10;75.80;;;;;;6306929;22;19978;-72
2023/03/09 17:12:13;;;;;;;;;;;19.10;75.90;;;;;;6279754;22;19910;-73
2023/03/09 17:14:40;;;;;;;;;;;19.10;76.00;;;;;;6307013;22;19972;-73
2023/03/09 17:17:08;;;;;;;;;;;19.10;76.00;;;;;;6306168;22;19953;-73
2023/03/09 17:19:35;;;;;;;;;;;19.10;76.10;;;;;;6306070;22;19926;-72
2023/03/09 17:22:02;;;;;;;;;;;19.10;76.10;;;;;;6306465;22;19903;-72
2023/03/09 17:24:29;;;;;;;;;;;19.10;76.10;;;;;;6305314;22;19911;-73
2023/03/09 17:26:56;;;;;;;;;;;19.10;76.70;;;;;;6279102;22;20318;-72
2023/03/09 17:29:23;;;;;;;;;;;19.10;76.70;;;;;;6278529;22;19903;-73
2023/03/09 17:31:49;;;;;;;;;;;19.00;76.70;;;;;;6278925;22;19909;-73
2023/03/09 17:34:16;;;;;;;;;;;19.00;76.60;;;;;;6305580;22;19907;-73
2023/03/09 17:36:44;;;;;;;;;;;18.90;76.80;;;;;;6306169;22;19939;-73
2023/03/09 17:39:11;;;;;;;;;;;18.90;77.00;;;;;;6306639;22;19941;-73
2023/03/09 17:41:39;;;;;;;;;;;18.80;77.00;;;;;;6305080;22;19907;-72
2023/03/09 17:44:06;;;;;;;;;;;18.90;77.00;;;;;;6277913;22;19907;-73
2023/03/09 17:46:33;;;;;;;;;;;18.90;77.20;;;;;;6305882;22;19907;-72
2023/03/09 17:48:59;;;;;;;;;;;18.90;77.20;;;;;;6276262;22;19902;-73
2023/03/09 17:51:26;;;;;;;;;;;18.90;77.10;;;;;;6306152;22;20229;-72
2023/03/09 17:53:53;;;;;;;;;;;18.90;77.10;;;;;;6305374;22;19907;-72
2023/03/09 17:56:20;;;;;;;;;;;18.90;77.00;;;;;;6305868;22;19910;-72
2023/03/09 17:58:48;;;;;;;;;;;19.00;77.20;;;;;;6277618;22;19903;-72
2023/03/09 18:01:20;;;;;;;;;;;18.90;77.10;;;;;;6304842;22;19903;-72
2023/03/09 18:03:46;;;;;;;;;;;18.80;77.10;;;;;;6305012;22;19909;-73
2023/03/09 18:06:17;;;;;;;;;;;18.80;77.40;;;;;;6305396;22;19918;-72
2023/03/09 18:08:43;;;;;;;;;;;18.80;77.60;;;;;;6278997;22;19945;-72
2023/03/09 18:11:13;;;;;;;;;;;18.80;77.80;;;;;;6305411;22;19914;-72
2023/03/09 18:13:40;;;;;;;;;;;18.80;78.00;;;;;;6279072;22;19903;-73
2023/03/09 18:16:07;;;;;;;;;;;18.80;78.20;;;;;;6306139;22;19910;-73
2023/03/09 18:18:34;;;;;;;;;;;18.80;77.90;;;;;;6304691;22;20353;-72
2023/03/09 18:21:01;;;;;;;;;;;18.80;77.80;;;;;;6305346;22;19922;-73
2023/03/09 18:23:29;;;;;;;;;;;18.80;77.80;;;;;;6305131;22;20330;-73
2023/03/09 18:25:55;;;;;;;;;;;18.70;77.80;;;;;;6305115;22;20272;-72
2023/03/09 18:28:22;;;;;;;;;;;18.70;77.90;;;;;;6278470;22;19903;-73
2023/03/09 18:30:49;;;;;;;;;;;18.70;78.10;;;;;;6305826;22;20330;-73
2023/03/09 18:33:15;;;;;;;;;;;18.70;78.00;;;;;;6305585;22;19926;-73
2023/03/09 18:35:43;;;;;;;;;;;18.60;78.10;;;;;;6279155;22;20245;-73
2023/03/09 18:38:11;;;;;;;;;;;18.70;78.30;;;;;;6306062;22;19907;-73
2023/03/09 18:40:38;;;;;;;;;;;18.60;78.30;;;;;;6306354;22;19952;-73
2023/03/09 18:43:04;;;;;;;;;;;18.60;78.40;;;;;;6306628;22;19942;-72
2023/03/09 18:45:34;;;;;;;;;;;18.60;78.50;;;;;;6305951;22;19910;-72
2023/03/09 18:48:00;;;;;;;;;;;18.60;78.40;;;;;;6305955;22;19919;-73
2023/03/09 18:50:27;;;;;;;;;;;18.60;78.40;;;;;;6306118;22;19903;-73
2023/03/09 18:52:54;;;;;;;;;;;18.60;78.20;;;;;;6306003;22;19993;-73
2023/03/09 18:55:20;;;;;;;;;;;18.60;78.20;;;;;;6306002;22;19909;-73
2023/03/09 18:57:47;;;;;;;;;;;18.60;78.20;;;;;;6306125;22;19986;-72
2023/03/09 19:00:14;;;;;;;;;;;18.60;78.10;;;;;;6306021;22;19903;-72
2023/03/09 19:02:41;;;;;;;;;;;18.50;78.10;;;;;;6304842;22;19903;-73
2023/03/09 19:05:08;;;;;;;;;;;18.50;78.40;;;;;;6305139;22;19933;-73
2023/03/09 19:07:34;;;;;;;;;;;18.60;78.60;;;;;;6305482;22;19985;-72
2023/03/09 19:10:01;;;;;;;;;;;18.60;78.60;;;;;;6305646;22;20300;-73
2023/03/09 19:12:28;;;;;;;;;;;18.60;78.50;;;;;;6305163;22;20322;-72
2023/03/09 19:14:55;;;;;;;;;;;18.60;78.50;;;;;;6305314;22;20292;-72
2023/03/09 19:17:21;;;;;;;;;;;18.50;78.40;;;;;;6279355;22;19915;-73
2023/03/09 19:19:49;;;;;;;;;;;18.60;78.60;;;;;;6307179;22;19965;-73
2023/03/09 19:22:16;;;;;;;;;;;18.60;78.70;;;;;;6307169;22;19906;-72
2023/03/09 19:24:43;;;;;;;;;;;18.60;78.50;;;;;;6307319;22;20379;-73
2023/03/09 19:27:10;;;;;;;;;;;18.60;78.70;;;;;;6280502;22;19915;-73
2023/03/09 19:29:37;;;;;;;;;;;18.70;78.80;;;;;;6306705;22;20336;-73
2023/03/09 19:32:03;;;;;;;;;;;18.70;78.70;;;;;;6307321;22;19910;-72
2023/03/09 19:34:30;;;;;;;;;;;18.70;78.60;;;;;;6306682;22;19913;-73
2023/03/09 19:36:57;;;;;;;;;;;18.60;78.70;;;;;;6307246;22;19986;-73
2023/03/09 19:39:27;;;;;;;;;;;18.60;78.80;;;;;;6307172;22;19934;-73
2023/03/09 19:41:54;;;;;;;;;;;18.60;78.80;;;;;;6304716;22;19907;-73
2023/03/09 19:44:20;;;;;;;;;;;18.60;78.80;;;;;;6306285;22;19990;-73
2023/03/09 19:46:47;;;;;;;;;;;18.60;78.80;;;;;;6306352;22;19907;-73
2023/03/09 19:49:14;;;;;;;;;;;18.70;78.60;;;;;;6307045;22;19910;-73
2023/03/09 19:51:40;;;;;;;;;;;18.60;78.50;;;;;;6306109;22;19914;-73
2023/03/09 19:54:07;;;;;;;;;;;18.70;78.80;;;;;;6306707;22;19918;-73
2023/03/09 19:56:35;;;;;;;;;;;18.60;79.00;;;;;;6306529;22;19918;-73
2023/03/09 19:59:02;;;;;;;;;;;18.50;79.10;;;;;;6307631;22;19907;-73
2023/03/09 20:01:32;;;;;;;;;;;18.50;78.80;;;;;;6306360;22;19907;-73
2023/03/09 20:04:07;;;;;;;;;;;18.50;78.60;;;;;;6307164;22;20371;-73
2023/03/09 20:06:41;;;;;;;;;;;18.50;78.80;;;;;;6278712;22;19911;-73
2023/03/09 20:09:08;;;;;;;;;;;18.50;79.00;;;;;;6306921;22;19982;-73
2023/03/09 20:11:34;;;;;;;;;;;18.50;79.20;;;;;;6306853;22;19913;-73
